createdAt,value
2022-12-12T00:01:34.685Z,44.53
2022-12-12T00:04:01.023Z,41.10
2022-12-12T00:06:28.221Z,41.97
2022-12-12T00:08:55.072Z,44.10
2022-12-12T00:11:22.732Z,41.83
2022-12-12T00:13:49.710Z,41.03
2022-12-12T00:16:16.574Z,42.30
2022-12-12T00:18:43.046Z,45.67
2022-12-12T00:21:19.273Z,44.30
2022-12-12T00:23:45.979Z,40.70
2022-12-12T00:26:19.228Z,41.80
2022-12-12T00:28:46.146Z,40.60
2022-12-12T00:31:12.877Z,39.93
2022-12-12T00:33:39.505Z,39.67
2022-12-12T00:36:06.527Z,43.97
2022-12-12T00:38:33.081Z,45.77
2022-12-12T00:41:01.112Z,38.03
2022-12-12T00:43:27.566Z,45.00
2022-12-12T00:45:54.206Z,43.67
2022-12-12T00:48:20.983Z,45.80
2022-12-12T00:50:47.421Z,46.93
2022-12-12T00:53:13.787Z,43.33
2022-12-12T00:55:40.253Z,41.10
2022-12-12T00:58:06.599Z,39.17
2022-12-12T01:00:33.834Z,47.10
2022-12-12T01:03:00.606Z,44.23
2022-12-12T01:05:27.965Z,45.17
2022-12-12T01:07:54.302Z,46.27
2022-12-12T01:10:20.730Z,41.00
2022-12-12T01:12:47.103Z,45.23
2022-12-12T01:15:13.657Z,48.70
2022-12-12T01:17:40.170Z,42.10
2022-12-12T01:20:14.748Z,43.83
2022-12-12T01:22:41.048Z,39.20
2022-12-12T01:25:08.045Z,40.40
2022-12-12T01:27:34.478Z,41.80
2022-12-12T01:30:00.824Z,40.53
2022-12-12T01:32:28.510Z,45.67
2022-12-12T01:34:55.042Z,47.03
2022-12-12T01:37:21.435Z,42.20
2022-12-12T01:39:48.191Z,44.90
2022-12-12T01:42:18.831Z,46.00
2022-12-12T01:44:48.850Z,48.13
2022-12-12T01:47:18.228Z,48.78
2022-12-12T01:49:49.353Z,46.33
2022-12-12T01:52:21.388Z,47.40
2022-12-12T01:54:53.136Z,48.40
2022-12-12T01:57:29.893Z,44.50
2022-12-12T01:59:58.316Z,48.37
2022-12-12T02:02:25.168Z,47.23
2022-12-12T02:04:51.747Z,44.60
2022-12-12T02:07:18.199Z,43.60
2022-12-12T02:09:47.254Z,46.47
2022-12-12T02:12:15.166Z,57.30
2022-12-12T02:14:46.363Z,50.17
2022-12-12T02:17:31.854Z,47.83
2022-12-12T02:20:19.266Z,47.93
2022-12-12T02:22:54.316Z,48.67
2022-12-12T02:25:42.368Z,51.07
2022-12-12T02:28:24.345Z,50.70
2022-12-12T02:30:59.383Z,45.27
2022-12-12T02:33:50.644Z,44.03
2022-12-12T02:36:30.562Z,49.80
2022-12-12T02:38:59.868Z,48.77
2022-12-12T02:41:46.612Z,53.27
2022-12-12T02:44:57.814Z,48.80
2022-12-12T02:47:29.689Z,48.57
2022-12-12T02:50:02.964Z,47.57
2022-12-12T02:52:29.806Z,49.13
2022-12-12T02:54:56.260Z,49.07
2022-12-12T02:57:24.771Z,55.43
2022-12-12T03:00:02.338Z,48.80
2022-12-12T03:03:10.081Z,49.47
2022-12-12T03:06:03.601Z,51.37
2022-12-12T03:08:53.092Z,56.30
2022-12-12T03:11:43.611Z,55.97
2022-12-12T03:14:20.340Z,46.00
2022-12-12T03:17:13.045Z,46.57
2022-12-12T03:19:46.201Z,41.60
2022-12-12T03:22:24.953Z,47.77
2022-12-12T03:25:07.526Z,42.37
2022-12-12T03:28:09.028Z,44.57
2022-12-12T03:30:42.711Z,42.53
2022-12-12T03:33:18.828Z,37.33
2022-12-12T03:35:56.141Z,44.23
2022-12-12T03:38:28.224Z,43.20
2022-12-12T03:41:01.529Z,37.03
2022-12-12T03:43:35.892Z,37.37
2022-12-12T03:46:25.638Z,38.77
2022-12-12T03:49:08.844Z,37.10
2022-12-12T03:51:44.900Z,40.07
2022-12-12T03:54:28.354Z,39.90
2022-12-12T03:57:01.496Z,41.40
2022-12-12T03:59:34.139Z,40.87
2022-12-12T04:02:02.675Z,34.77
2022-12-12T04:04:36.523Z,42.10
2022-12-12T04:07:14.602Z,39.10
2022-12-12T04:09:42.187Z,38.13
2022-12-12T04:12:34.521Z,37.27
2022-12-12T04:15:50.796Z,39.83
2022-12-12T04:18:34.369Z,40.50
2022-12-12T04:21:33.724Z,42.57
2022-12-12T04:24:38.806Z,34.57
2022-12-12T04:27:12.472Z,36.73
2022-12-12T04:29:58.650Z,28.93
2022-12-12T04:32:28.277Z,33.20
2022-12-12T04:35:03.329Z,34.33
2022-12-12T04:37:38.654Z,36.57
2022-12-12T04:40:09.315Z,32.27
2022-12-12T04:42:46.167Z,37.92
2022-12-12T04:45:20.974Z,37.10
2022-12-12T04:47:51.121Z,30.83
2022-12-12T04:50:21.558Z,28.25
2022-12-12T04:52:51.972Z,35.42
2022-12-12T04:55:27.639Z,33.00
2022-12-12T04:57:55.107Z,36.00
2022-12-12T05:00:23.536Z,37.67
2022-12-12T05:02:58.116Z,35.00
2022-12-12T05:05:43.718Z,37.40
2022-12-12T05:08:21.435Z,34.50
2022-12-12T05:10:56.364Z,36.27
2022-12-12T05:18:48.523Z,35.27
2022-12-12T05:21:15.820Z,38.10
2022-12-12T05:23:42.239Z,37.43
2022-12-12T05:26:10.713Z,43.43
2022-12-12T05:28:37.431Z,39.27
2022-12-12T05:31:04.326Z,41.80
2022-12-12T05:33:30.849Z,41.93
2022-12-12T05:35:57.180Z,42.53
2022-12-12T05:38:23.562Z,44.77
2022-12-12T05:40:49.902Z,39.03
2022-12-12T05:43:16.331Z,42.23
2022-12-12T05:45:42.983Z,45.37
2022-12-12T05:48:09.492Z,44.33
2022-12-12T05:50:35.868Z,47.77
2022-12-12T05:53:02.410Z,38.27
2022-12-12T05:55:29.047Z,42.17
2022-12-12T05:57:55.447Z,46.43
2022-12-12T06:00:22.018Z,40.47
2022-12-12T06:02:48.494Z,38.37
2022-12-12T06:05:15.583Z,44.57
2022-12-12T06:07:42.149Z,44.33
2022-12-12T06:10:09.258Z,42.27
2022-12-12T06:12:35.787Z,38.77
2022-12-12T06:15:02.505Z,43.63
2022-12-12T06:17:33.083Z,42.23
2022-12-12T06:20:00.227Z,37.80
2022-12-12T06:22:26.621Z,41.23
2022-12-12T06:24:53.050Z,41.17
2022-12-12T06:27:19.777Z,41.93
2022-12-12T06:29:46.226Z,40.47
2022-12-12T06:32:12.702Z,41.10
2022-12-12T06:34:39.493Z,33.67
2022-12-12T06:37:06.790Z,35.23
2022-12-12T06:39:33.189Z,40.10
2022-12-12T06:41:59.691Z,36.93
2022-12-12T06:44:26.201Z,44.83
2022-12-12T06:46:52.538Z,43.27
2022-12-12T06:49:18.935Z,43.93
2022-12-12T06:51:45.302Z,39.43
2022-12-12T06:54:13.623Z,38.07
2022-12-12T06:56:46.274Z,43.47
2022-12-12T06:59:15.216Z,46.53
2022-12-12T07:01:41.823Z,43.13
2022-12-12T07:04:08.447Z,41.53
2022-12-12T07:06:34.990Z,41.57
2022-12-12T07:09:01.357Z,40.30
2022-12-12T07:11:28.524Z,41.03
2022-12-12T07:13:57.203Z,38.07
2022-12-12T07:16:23.864Z,41.53
2022-12-12T07:18:50.640Z,34.80
2022-12-12T07:21:19.448Z,44.07
2022-12-12T07:23:46.491Z,50.23
2022-12-12T07:26:15.434Z,39.90
2022-12-12T07:28:42.148Z,43.60
2022-12-12T07:31:11.019Z,41.63
2022-12-12T07:33:43.566Z,44.13
2022-12-12T07:36:11.593Z,42.73
2022-12-12T07:38:38.502Z,38.13
2022-12-12T07:41:06.653Z,42.37
2022-12-12T07:43:39.996Z,43.67
2022-12-12T07:46:11.179Z,42.80
2022-12-12T07:48:37.741Z,39.57
2022-12-12T07:51:04.693Z,41.20
2022-12-12T07:53:31.168Z,40.67
2022-12-12T07:55:57.636Z,46.07
2022-12-12T07:58:24.057Z,41.43
2022-12-12T08:00:50.474Z,41.30
2022-12-12T08:03:17.034Z,35.83
2022-12-12T08:05:43.869Z,38.27
2022-12-12T08:08:10.767Z,45.17
2022-12-12T08:10:40.404Z,37.83
2022-12-12T08:13:07.111Z,38.03
2022-12-12T08:15:33.970Z,37.73
2022-12-12T08:18:00.501Z,36.90
2022-12-12T08:20:27.046Z,36.13
2022-12-12T08:22:53.377Z,36.90
2022-12-12T08:25:19.883Z,39.37
2022-12-12T08:27:46.250Z,36.37
2022-12-12T08:30:13.099Z,41.47
2022-12-12T08:32:39.590Z,39.97
2022-12-12T08:35:06.678Z,36.87
2022-12-12T08:37:33.052Z,32.80
2022-12-12T08:39:59.408Z,40.87
2022-12-12T08:42:26.112Z,30.63
2022-12-12T08:44:52.739Z,34.23
2022-12-12T08:47:19.052Z,35.60
2022-12-12T08:49:45.453Z,31.00
2022-12-12T08:52:12.055Z,34.77
2022-12-12T08:54:38.452Z,34.87
2022-12-12T08:57:04.897Z,33.70
2022-12-12T08:59:31.261Z,32.40
2022-12-12T09:01:57.673Z,33.77
2022-12-12T09:04:24.422Z,33.37
2022-12-12T09:06:50.876Z,32.33
2022-12-12T09:09:17.360Z,33.37
2022-12-12T09:11:44.176Z,34.43
2022-12-12T09:14:10.750Z,35.20
2022-12-12T09:16:37.140Z,31.97
2022-12-12T09:19:04.794Z,34.87
2022-12-12T09:21:31.181Z,33.27
2022-12-12T09:23:57.552Z,31.87
2022-12-12T09:26:24.056Z,40.37
2022-12-12T09:28:50.442Z,31.73
2022-12-12T09:31:16.854Z,32.40
2022-12-12T09:33:43.352Z,31.10
2022-12-12T09:36:11.718Z,34.17
2022-12-12T09:38:38.154Z,34.03
2022-12-12T09:41:18.617Z,33.13
2022-12-12T09:43:50.405Z,34.08
2022-12-12T09:46:40.393Z,30.50
2022-12-12T09:49:44.255Z,28.77
2022-12-12T09:52:17.559Z,40.17
2022-12-12T09:54:44.574Z,32.03
2022-12-12T09:57:25.740Z,41.37
2022-12-12T10:00:02.099Z,33.13
2022-12-12T10:02:47.154Z,31.37
2022-12-12T10:05:49.232Z,48.47
2022-12-12T10:08:42.676Z,33.23
2022-12-12T10:11:13.542Z,33.17
2022-12-12T10:16:14.271Z,28.70
2022-12-12T10:18:44.991Z,34.40
2022-12-12T10:21:21.107Z,33.92
2022-12-12T10:23:53.231Z,28.93
2022-12-12T10:26:25.326Z,30.07
2022-12-12T10:28:55.772Z,31.83
2022-12-12T10:32:01.271Z,28.85
2022-12-12T10:34:36.813Z,32.37
2022-12-12T10:37:33.632Z,29.43
2022-12-12T10:40:15.347Z,33.30
2022-12-12T10:42:55.362Z,30.13
2022-12-12T10:45:32.202Z,33.50
2022-12-12T10:47:58.683Z,31.03
2022-12-12T10:50:39.475Z,32.63
2022-12-12T10:53:10.169Z,31.38
2022-12-12T10:55:45.707Z,29.77
2022-12-12T10:58:12.348Z,32.47
2022-12-12T11:00:43.562Z,32.43
2022-12-12T11:03:19.267Z,28.47
2022-12-12T11:05:47.595Z,30.13
2022-12-12T11:08:19.889Z,29.37
2022-12-12T11:10:59.459Z,30.70
2022-12-12T11:13:26.041Z,30.67
2022-12-12T11:16:13.031Z,29.50
2022-12-12T11:18:40.088Z,31.83
2022-12-12T11:21:10.871Z,25.53
2022-12-12T11:23:52.572Z,47.63
2022-12-12T11:26:21.564Z,28.07
2022-12-12T11:29:02.290Z,38.47
2022-12-12T11:31:34.151Z,31.17
2022-12-12T11:34:04.360Z,27.40
2022-12-12T11:36:38.172Z,31.50
2022-12-12T11:39:28.122Z,27.90
2022-12-12T11:41:59.220Z,46.33
2022-12-12T11:44:32.221Z,26.23
2022-12-12T11:47:25.552Z,31.37
2022-12-12T11:49:58.664Z,34.60
2022-12-12T11:52:33.257Z,28.00
2022-12-12T11:55:00.766Z,34.00
2022-12-12T11:57:27.161Z,32.93
2022-12-12T12:00:14.859Z,37.33
2022-12-12T12:02:50.242Z,34.13
2022-12-12T12:05:32.965Z,35.23
2022-12-12T12:08:24.113Z,33.10
2022-12-12T12:11:05.685Z,29.20
2022-12-12T12:14:03.827Z,21.80
2022-12-12T12:17:08.831Z,26.30
2022-12-12T12:20:01.190Z,26.13
2022-12-12T12:22:57.417Z,28.07
2022-12-12T12:25:28.241Z,34.97
2022-12-12T12:28:06.682Z,27.83
2022-12-12T12:31:08.525Z,27.33
2022-12-12T12:34:30.873Z,25.30
2022-12-12T12:37:36.815Z,26.23
2022-12-12T12:40:31.467Z,33.33
2022-12-12T12:43:16.434Z,27.27
2022-12-12T12:45:56.392Z,28.30
2022-12-12T12:48:30.770Z,26.17
2022-12-12T12:51:33.731Z,33.27
2022-12-12T12:54:06.407Z,22.33
2022-12-12T12:56:44.226Z,22.98
2022-12-12T12:59:17.154Z,28.70
2022-12-12T13:01:47.589Z,32.47
2022-12-12T13:04:24.203Z,22.35
2022-12-12T13:07:41.092Z,35.55
2022-12-12T13:10:21.895Z,19.83
2022-12-12T13:13:06.955Z,23.48
2022-12-12T13:15:39.278Z,22.50
2022-12-12T13:18:12.130Z,21.00
2022-12-12T13:20:42.028Z,20.93
2022-12-12T13:23:20.454Z,21.35
2022-12-12T13:25:58.273Z,20.80
2022-12-12T13:28:33.025Z,30.10
2022-12-12T13:31:22.374Z,26.33
2022-12-12T13:34:04.399Z,20.30
2022-12-12T13:36:40.668Z,24.67
2022-12-12T13:39:22.297Z,19.80
2022-12-12T13:41:59.814Z,27.52
2022-12-12T13:44:38.519Z,27.65
2022-12-12T13:47:23.546Z,21.30
2022-12-12T13:49:55.137Z,19.90
2022-12-12T13:52:26.954Z,30.33
2022-12-12T13:55:12.957Z,24.87
2022-12-12T13:57:57.404Z,23.70
2022-12-12T14:00:25.507Z,19.00
2022-12-12T14:03:01.302Z,21.10
2022-12-12T14:05:43.330Z,19.70
2022-12-12T14:08:12.524Z,18.47
2022-12-12T14:10:52.393Z,22.47
2022-12-12T14:13:21.574Z,26.90
2022-12-12T14:15:58.460Z,19.73
2022-12-12T14:18:30.483Z,17.53
2022-12-12T14:21:07.254Z,26.10
2022-12-12T14:23:42.229Z,27.43
2022-12-12T14:26:27.242Z,21.27
2022-12-12T14:29:18.488Z,19.93
2022-12-12T14:32:06.695Z,30.07
2022-12-12T14:34:51.886Z,24.37
2022-12-12T14:37:52.129Z,32.87
2022-12-12T14:40:22.919Z,31.88
2022-12-12T14:43:18.480Z,21.35
2022-12-12T14:45:51.782Z,31.33
2022-12-12T14:48:29.782Z,20.47
2022-12-12T14:51:27.703Z,20.73
2022-12-12T14:53:58.813Z,15.87
2022-12-12T14:56:29.847Z,22.63
2022-12-12T14:59:02.640Z,17.57
2022-12-12T15:01:34.110Z,20.33
2022-12-12T15:04:04.084Z,18.90
2022-12-12T15:06:45.456Z,17.95
2022-12-12T15:09:30.315Z,19.90
2022-12-12T15:12:05.912Z,16.13
2022-12-12T15:14:32.264Z,13.00
2022-12-12T15:17:01.887Z,11.03
2022-12-12T15:19:41.288Z,12.03
2022-12-12T15:22:28.536Z,14.47
2022-12-12T15:24:56.703Z,14.93
2022-12-12T15:27:46.978Z,12.97
2022-12-12T15:30:30.792Z,16.37
2022-12-12T15:33:01.190Z,18.83
2022-12-12T15:35:28.028Z,15.05
2022-12-12T15:38:02.010Z,16.77
2022-12-12T15:40:30.978Z,25.73
2022-12-12T15:43:07.255Z,22.93
2022-12-12T15:45:39.897Z,25.53
2022-12-12T15:48:12.492Z,24.43
2022-12-12T15:50:41.663Z,20.20
2022-12-12T15:53:24.901Z,23.23
2022-12-12T15:56:06.582Z,28.23
2022-12-12T15:58:38.073Z,26.07
2022-12-12T16:01:20.653Z,25.13
2022-12-12T16:04:03.421Z,24.97
2022-12-12T16:06:42.224Z,24.30
2022-12-12T16:09:11.680Z,26.47
2022-12-12T16:11:46.107Z,23.20
2022-12-12T16:14:24.866Z,22.57
2022-12-12T16:17:05.722Z,23.17
2022-12-12T16:19:47.423Z,20.88
2022-12-12T16:22:23.915Z,19.37
2022-12-12T16:24:53.425Z,20.10
2022-12-12T16:27:20.461Z,20.60
2022-12-12T16:29:47.655Z,18.60
2022-12-12T16:32:17.428Z,20.87
2022-12-12T16:34:44.967Z,23.07
2022-12-12T16:37:16.437Z,22.03
2022-12-12T16:39:42.997Z,20.60
2022-12-12T16:42:16.668Z,22.87
2022-12-12T16:44:43.925Z,27.43
2022-12-12T16:47:17.966Z,25.60
2022-12-12T16:49:45.055Z,26.73
2022-12-12T16:52:13.399Z,29.43
2022-12-12T16:54:40.609Z,27.30
2022-12-12T16:57:07.090Z,26.87
2022-12-12T16:59:33.703Z,32.83
2022-12-12T17:02:00.163Z,27.87
2022-12-12T17:04:26.755Z,28.13
2022-12-12T17:06:53.705Z,32.37
2022-12-12T17:09:21.579Z,26.93
2022-12-12T17:11:51.012Z,28.25
2022-12-12T17:14:23.123Z,28.00
2022-12-12T17:16:50.455Z,27.70
2022-12-12T17:19:17.326Z,28.13
2022-12-12T17:21:43.944Z,26.80
2022-12-12T17:24:10.817Z,27.93
2022-12-12T17:26:38.732Z,22.70
2022-12-12T17:29:07.122Z,26.03
2022-12-12T17:31:34.159Z,25.63
2022-12-12T17:34:01.781Z,26.77
2022-12-12T17:36:28.227Z,23.77
2022-12-12T17:38:54.992Z,27.93
2022-12-12T17:41:21.408Z,25.17
2022-12-12T17:43:53.621Z,29.57
2022-12-12T17:46:22.464Z,29.00
2022-12-12T17:48:49.125Z,28.13
2022-12-12T17:51:21.588Z,26.40
2022-12-12T17:53:48.087Z,27.03
2022-12-12T17:56:17.279Z,33.47
2022-12-12T17:58:45.717Z,33.53
2022-12-12T18:01:15.690Z,46.90
2022-12-12T18:03:43.204Z,54.70
2022-12-12T18:06:10.507Z,47.43
2022-12-12T18:08:38.331Z,46.17
2022-12-12T18:11:09.794Z,39.67
2022-12-12T18:13:36.866Z,47.70
2022-12-12T18:16:03.448Z,49.40
2022-12-12T18:18:29.928Z,53.13
2022-12-12T18:20:56.520Z,47.63
2022-12-12T18:23:22.944Z,45.30
2022-12-12T18:25:49.669Z,42.63
2022-12-12T18:28:16.044Z,41.80
2022-12-12T18:30:42.443Z,40.87
2022-12-12T18:33:10.838Z,40.50
2022-12-12T18:35:37.319Z,42.07
2022-12-12T18:38:03.960Z,42.40
2022-12-12T18:40:30.583Z,41.10
2022-12-12T18:42:57.026Z,40.00
2022-12-12T18:45:23.462Z,41.27
2022-12-12T18:47:50.166Z,49.23
2022-12-12T18:50:16.793Z,49.63
2022-12-12T18:52:43.359Z,41.77
2022-12-12T18:55:10.716Z,46.53
2022-12-12T18:57:37.350Z,44.43
2022-12-12T19:00:05.094Z,44.73
2022-12-12T19:02:32.661Z,43.67
2022-12-12T19:04:59.887Z,47.67
2022-12-12T19:07:26.305Z,45.83
2022-12-12T19:09:52.893Z,50.17
2022-12-12T19:12:19.492Z,46.73
2022-12-12T19:15:08.125Z,49.60
2022-12-12T19:17:32.332Z,55.50
2022-12-12T19:19:58.736Z,51.77
2022-12-12T19:25:13.619Z,45.13
2022-12-12T19:27:39.984Z,46.23
2022-12-12T19:30:07.108Z,45.20
2022-12-12T19:32:33.563Z,46.93
2022-12-12T19:35:00.370Z,52.97
2022-12-12T19:37:26.809Z,52.27
2022-12-12T19:39:53.470Z,51.63
2022-12-12T19:42:20.515Z,53.33
2022-12-12T19:44:47.023Z,53.13
2022-12-12T19:47:13.374Z,55.47
2022-12-12T19:49:40.165Z,56.97
2022-12-12T19:52:12.155Z,52.20
2022-12-12T19:54:40.378Z,50.53
2022-12-12T19:57:06.977Z,48.30
2022-12-12T19:59:33.328Z,53.90
2022-12-12T20:01:59.757Z,53.07
2022-12-12T20:04:26.234Z,54.27
2022-12-12T20:06:52.913Z,54.73
2022-12-12T20:09:25.345Z,50.03
2022-12-12T20:11:52.657Z,48.70
2022-12-12T20:14:24.472Z,50.07
2022-12-12T20:16:52.515Z,52.63
2022-12-12T20:19:20.389Z,50.07
2022-12-12T20:22:04.030Z,56.63
2022-12-12T20:24:33.822Z,52.03
2022-12-12T20:27:02.131Z,48.43
2022-12-12T20:29:28.727Z,48.63
2022-12-12T20:31:55.267Z,41.83
2022-12-12T20:34:21.948Z,45.70
2022-12-12T20:36:48.641Z,51.17
2022-12-12T20:39:17.872Z,43.73
2022-12-12T20:41:44.753Z,48.23
2022-12-12T20:44:13.351Z,45.03
2022-12-12T20:46:42.115Z,51.00
2022-12-12T20:49:10.430Z,46.00
2022-12-12T20:54:24.723Z,46.17
2022-12-12T20:56:52.396Z,44.53
2022-12-12T20:59:18.793Z,41.93
2022-12-12T21:01:45.775Z,44.93
2022-12-12T21:04:12.314Z,44.17
2022-12-12T21:06:41.622Z,46.87
2022-12-12T21:09:10.683Z,43.83
2022-12-12T21:11:38.627Z,43.83
2022-12-12T21:14:06.743Z,50.07
2022-12-12T21:16:36.755Z,45.03
2022-12-12T21:19:06.395Z,49.05
2022-12-12T21:21:33.973Z,47.50
2022-12-12T21:24:01.160Z,45.87
2022-12-12T21:26:30.647Z,51.43
2022-12-12T21:28:59.076Z,43.33
2022-12-12T21:31:28.459Z,48.77
2022-12-12T21:33:55.336Z,46.40
2022-12-12T21:36:23.771Z,50.03
2022-12-12T21:38:51.716Z,48.90
2022-12-12T21:41:20.533Z,48.67
2022-12-12T21:43:48.894Z,48.13
2022-12-12T21:46:21.510Z,45.93
2022-12-12T21:48:48.964Z,47.97
2022-12-12T21:51:16.380Z,54.77
2022-12-12T21:53:43.033Z,47.07
2022-12-12T21:56:17.317Z,48.00
2022-12-12T21:58:46.144Z,43.17
2022-12-12T22:01:18.654Z,42.53
2022-12-12T22:03:47.377Z,48.03
2022-12-12T22:06:24.332Z,42.37
2022-12-12T22:08:51.353Z,47.10
2022-12-12T22:11:34.400Z,48.60
2022-12-12T22:14:06.694Z,51.93
2022-12-12T22:16:33.784Z,49.30
2022-12-12T22:19:05.806Z,52.03
2022-12-12T22:21:33.801Z,52.27
2022-12-12T22:24:01.170Z,49.10
2022-12-12T22:26:33.964Z,57.43
2022-12-12T22:29:04.729Z,53.20
2022-12-12T22:34:17.786Z,53.63
2022-12-12T22:36:45.259Z,58.67
2022-12-12T22:39:20.391Z,54.67
2022-12-12T22:41:47.062Z,52.63
2022-12-12T22:44:16.473Z,59.77
2022-12-12T22:46:47.934Z,52.57
2022-12-12T22:49:16.192Z,48.47
2022-12-12T22:51:43.635Z,55.50
2022-12-12T22:54:10.391Z,50.30
2022-12-12T22:56:38.168Z,51.50
2022-12-12T22:59:05.535Z,53.63
2022-12-12T23:01:32.443Z,49.73
2022-12-12T23:03:59.425Z,45.93
2022-12-12T23:06:31.746Z,45.07
2022-12-12T23:09:03.496Z,47.07
2022-12-12T23:11:31.255Z,46.07
2022-12-12T23:14:18.330Z,44.50
2022-12-12T23:16:45.555Z,47.40
2022-12-12T23:19:14.428Z,48.07
2022-12-12T23:21:40.891Z,50.33
2022-12-12T23:24:07.658Z,43.10
2022-12-12T23:26:38.714Z,44.77
2022-12-12T23:29:07.032Z,44.23
2022-12-12T23:31:35.522Z,47.40
2022-12-12T23:34:05.567Z,51.93
2022-12-12T23:36:32.203Z,44.28
2022-12-12T23:39:01.022Z,45.43
2022-12-12T23:41:28.442Z,42.97
2022-12-12T23:43:55.439Z,43.77
2022-12-12T23:46:23.609Z,38.37
2022-12-12T23:48:49.922Z,46.27
2022-12-12T23:51:16.341Z,46.63
2022-12-12T23:53:42.734Z,49.17
2022-12-12T23:56:09.420Z,43.40
2022-12-12T23:58:35.961Z,44.67
